sensor_id;sensor_type;location;lat;lon;timestamp;pressure;altitude;pressure_sealevel;temperature;humidity
62697;BME280;48761;42.680;23.312;2022-10-16T00:01:52;95486.22;;;11.37;66.08
62697;BME280;48761;42.680;23.312;2022-10-16T00:04:18;95493.44;;;11.35;66.09
62697;BME280;48761;42.680;23.312;2022-10-16T00:06:43;95491.53;;;11.37;65.94
62697;BME280;48761;42.680;23.312;2022-10-16T00:09:09;95475.59;;;11.22;65.95
62697;BME280;48761;42.680;23.312;2022-10-16T00:11:38;95498.78;;;11.35;66.04
62697;BME280;48761;42.680;23.312;2022-10-16T00:14:06;95494.56;;;11.30;65.94
62697;BME280;48761;42.680;23.312;2022-10-16T00:16:33;95462.28;;;11.07;65.82
62697;BME280;48761;42.680;23.312;2022-10-16T00:18:59;95496.31;;;11.17;66.21
62697;BME280;48761;42.680;23.312;2022-10-16T00:21:28;95495.91;;;11.23;66.19
62697;BME280;48761;42.680;23.312;2022-10-16T00:23:56;95490.13;;;11.16;66.23
62697;BME280;48761;42.680;23.312;2022-10-16T00:26:23;95488.69;;;11.10;66.26
62697;BME280;48761;42.680;23.312;2022-10-16T00:28:50;95509.03;;;11.12;66.49
62697;BME280;48761;42.680;23.312;2022-10-16T00:31:18;95512.28;;;11.17;66.31
62697;BME280;48761;42.680;23.312;2022-10-16T00:33:45;95489.47;;;10.98;66.55
62697;BME280;48761;42.680;23.312;2022-10-16T00:36:13;95518.34;;;11.04;66.81
62697;BME280;48761;42.680;23.312;2022-10-16T00:38:39;95514.56;;;11.08;66.55
62697;BME280;48761;42.680;23.312;2022-10-16T00:41:06;95507.44;;;10.94;66.78
62697;BME280;48761;42.680;23.312;2022-10-16T00:43:37;95512.47;;;10.99;66.58
62697;BME280;48761;42.680;23.312;2022-10-16T00:46:08;95492.13;;;10.83;66.59
62697;BME280;48761;42.680;23.312;2022-10-16T00:48:36;95487.09;;;10.79;66.67
62697;BME280;48761;42.680;23.312;2022-10-16T00:51:04;95507.03;;;10.86;66.76
62697;BME280;48761;42.680;23.312;2022-10-16T00:53:32;95504.09;;;10.91;66.48
62697;BME280;48761;42.680;23.312;2022-10-16T00:55:59;95498.19;;;10.85;66.29
62697;BME280;48761;42.680;23.312;2022-10-16T00:58:25;95499.91;;;10.86;66.32
62697;BME280;48761;42.680;23.312;2022-10-16T01:00:51;95498.75;;;10.76;66.38
62697;BME280;48761;42.680;23.312;2022-10-16T01:06:10;95495.50;;;10.56;67.07
62697;BME280;48761;42.680;23.312;2022-10-16T01:08:51;95516.63;;;10.74;66.78
62697;BME280;48761;42.680;23.312;2022-10-16T01:11:30;95515.75;;;10.73;66.73
62697;BME280;48761;42.680;23.312;2022-10-16T01:14:01;95517.38;;;10.76;66.57
62697;BME280;48761;42.680;23.312;2022-10-16T01:16:40;95521.72;;;10.77;66.59
62697;BME280;48761;42.680;23.312;2022-10-16T01:19:15;95510.06;;;10.80;66.37
62697;BME280;48761;42.680;23.312;2022-10-16T01:21:46;95514.03;;;10.72;66.69
62697;BME280;48761;42.680;23.312;2022-10-16T01:27:13;95506.16;;;10.71;66.63
62697;BME280;48761;42.680;23.312;2022-10-16T01:29:54;95506.50;;;10.64;66.69
62697;BME280;48761;42.680;23.312;2022-10-16T01:32:36;95487.53;;;10.56;66.46
62697;BME280;48761;42.680;23.312;2022-10-16T01:35:11;95499.69;;;10.60;66.90
62697;BME280;48761;42.680;23.312;2022-10-16T01:37:53;95481.94;;;10.45;66.86
62697;BME280;48761;42.680;23.312;2022-10-16T01:40:24;95497.81;;;10.46;67.10
62697;BME280;48761;42.680;23.312;2022-10-16T01:43:05;95497.13;;;10.42;67.14
62697;BME280;48761;42.680;23.312;2022-10-16T01:45:34;95507.66;;;10.44;67.11
62697;BME280;48761;42.680;23.312;2022-10-16T01:48:02;95508.16;;;10.36;67.34
62697;BME280;48761;42.680;23.312;2022-10-16T01:50:31;95511.91;;;10.32;67.69
62697;BME280;48761;42.680;23.312;2022-10-16T01:52:59;95512.50;;;10.37;67.51
62697;BME280;48761;42.680;23.312;2022-10-16T01:55:30;95500.06;;;10.38;67.31
62697;BME280;48761;42.680;23.312;2022-10-16T01:57:58;95512.50;;;10.37;67.58
62697;BME280;48761;42.680;23.312;2022-10-16T02:00:26;95518.56;;;10.39;67.24
62697;BME280;48761;42.680;23.312;2022-10-16T02:02:53;95504.69;;;10.34;67.28
62697;BME280;48761;42.680;23.312;2022-10-16T02:07:50;95522.59;;;10.47;67.27
62697;BME280;48761;42.680;23.312;2022-10-16T02:10:16;95518.56;;;10.39;67.14
62697;BME280;48761;42.680;23.312;2022-10-16T02:12:48;95521.34;;;10.38;67.24
62697;BME280;48761;42.680;23.312;2022-10-16T02:15:15;95533.31;;;10.45;67.00
62697;BME280;48761;42.680;23.312;2022-10-16T02:17:41;95524.28;;;10.33;67.06
62697;BME280;48761;42.680;23.312;2022-10-16T02:20:07;95534.91;;;10.33;67.32
62697;BME280;48761;42.680;23.312;2022-10-16T02:22:38;95526.34;;;10.28;66.99
62697;BME280;48761;42.680;23.312;2022-10-16T02:25:08;95535.75;;;10.34;66.88
62697;BME280;48761;42.680;23.312;2022-10-16T02:27:40;95544.66;;;10.32;66.83
62697;BME280;48761;42.680;23.312;2022-10-16T02:30:14;95541.75;;;10.37;66.73
62697;BME280;48761;42.680;23.312;2022-10-16T02:32:44;95545.53;;;10.33;66.96
62697;BME280;48761;42.680;23.312;2022-10-16T02:35:11;95544.94;;;10.28;66.87
62697;BME280;48761;42.680;23.312;2022-10-16T02:37:38;95547.75;;;10.25;66.99
62697;BME280;48761;42.680;23.312;2022-10-16T02:40:06;95516.28;;;10.02;67.23
62697;BME280;48761;42.680;23.312;2022-10-16T02:42:37;95513.16;;;10.10;67.06
62697;BME280;48761;42.680;23.312;2022-10-16T02:45:04;95542.56;;;10.23;67.18
62697;BME280;48761;42.680;23.312;2022-10-16T02:47:30;95553.94;;;10.25;67.00
62697;BME280;48761;42.680;23.312;2022-10-16T02:49:56;95558.06;;;10.15;66.97
62697;BME280;48761;42.680;23.312;2022-10-16T02:52:22;95540.59;;;10.11;66.98
62697;BME280;48761;42.680;23.312;2022-10-16T02:54:48;95558.94;;;10.15;67.00
62697;BME280;48761;42.680;23.312;2022-10-16T02:57:14;95544.78;;;9.98;67.47
62697;BME280;48761;42.680;23.312;2022-10-16T02:59:40;95562.94;;;10.06;67.52
62697;BME280;48761;42.680;23.312;2022-10-16T03:02:06;95573.59;;;9.90;67.95
62697;BME280;48761;42.680;23.312;2022-10-16T03:04:33;95536.94;;;9.81;67.83
62697;BME280;48761;42.680;23.312;2022-10-16T03:06:59;95544.72;;;9.84;67.80
62697;BME280;48761;42.680;23.312;2022-10-16T03:09:25;95561.84;;;9.94;67.88
62697;BME280;48761;42.680;23.312;2022-10-16T03:11:51;95569.91;;;9.93;67.67
62697;BME280;48761;42.680;23.312;2022-10-16T03:14:17;95565.28;;;9.96;67.75
62697;BME280;48761;42.680;23.312;2022-10-16T03:16:43;95560.81;;;9.97;67.41
62697;BME280;48761;42.680;23.312;2022-10-16T03:19:09;95560.94;;;9.95;67.42
62697;BME280;48761;42.680;23.312;2022-10-16T03:21:35;95574.22;;;9.95;67.63
62697;BME280;48761;42.680;23.312;2022-10-16T03:24:01;95564.44;;;9.96;67.69
62697;BME280;48761;42.680;23.312;2022-10-16T03:26:29;95566.03;;;9.98;67.40
62697;BME280;48761;42.680;23.312;2022-10-16T03:28:56;95542.75;;;9.71;67.12
62697;BME280;48761;42.680;23.312;2022-10-16T03:31:22;95577.03;;;9.92;67.26
62697;BME280;48761;42.680;23.312;2022-10-16T03:33:47;95568.22;;;9.75;67.22
62697;BME280;48761;42.680;23.312;2022-10-16T03:36:13;95573.53;;;9.75;67.03
62697;BME280;48761;42.680;23.312;2022-10-16T03:38:39;95565.97;;;9.68;67.34
62697;BME280;48761;42.680;23.312;2022-10-16T03:41:05;95580.69;;;9.73;67.45
62697;BME280;48761;42.680;23.312;2022-10-16T03:43:31;95581.72;;;9.71;67.46
62697;BME280;48761;42.680;23.312;2022-10-16T03:45:57;95575.72;;;9.67;67.79
62697;BME280;48761;42.680;23.312;2022-10-16T03:48:23;95573.25;;;9.64;67.69
62697;BME280;48761;42.680;23.312;2022-10-16T03:50:49;95570.44;;;9.67;67.57
62697;BME280;48761;42.680;23.312;2022-10-16T03:53:15;95561.94;;;9.60;67.61
62697;BME280;48761;42.680;23.312;2022-10-16T03:55:42;95571.03;;;9.72;67.15
62697;BME280;48761;42.680;23.312;2022-10-16T03:58:08;95559.81;;;9.67;66.97
62697;BME280;48761;42.680;23.312;2022-10-16T04:00:34;95567.25;;;9.60;67.49
62697;BME280;48761;42.680;23.312;2022-10-16T04:03:00;95567.50;;;9.56;67.29
62697;BME280;48761;42.680;23.312;2022-10-16T04:05:26;95569.56;;;9.50;67.73
62697;BME280;48761;42.680;23.312;2022-10-16T04:07:52;95559.09;;;9.47;67.48
62697;BME280;48761;42.680;23.312;2022-10-16T04:10:18;95535.28;;;9.29;67.29
62697;BME280;48761;42.680;23.312;2022-10-16T04:12:44;95569.38;;;9.53;67.18
62697;BME280;48761;42.680;23.312;2022-10-16T04:15:10;95577.94;;;9.59;67.17
62697;BME280;48761;42.680;23.312;2022-10-16T04:17:36;95572.97;;;9.52;67.46
62697;BME280;48761;42.680;23.312;2022-10-16T04:20:02;95565.94;;;9.51;67.36
62697;BME280;48761;42.680;23.312;2022-10-16T04:22:28;95569.72;;;9.47;67.67
62697;BME280;48761;42.680;23.312;2022-10-16T04:24:54;95577.06;;;9.42;67.90
62697;BME280;48761;42.680;23.312;2022-10-16T04:27:20;95566.97;;;9.49;67.83
62697;BME280;48761;42.680;23.312;2022-10-16T04:29:46;95573.66;;;9.40;68.03
62697;BME280;48761;42.680;23.312;2022-10-16T04:32:12;95573.19;;;9.32;68.23
62697;BME280;48761;42.680;23.312;2022-10-16T04:34:39;95578.25;;;9.36;67.81
62697;BME280;48761;42.680;23.312;2022-10-16T04:37:05;95573.81;;;9.37;67.64
62697;BME280;48761;42.680;23.312;2022-10-16T04:39:31;95581.69;;;9.38;68.09
62697;BME280;48761;42.680;23.312;2022-10-16T04:41:57;95539.38;;;9.19;67.59
62697;BME280;48761;42.680;23.312;2022-10-16T04:44:23;95591.13;;;9.44;67.86
62697;BME280;48761;42.680;23.312;2022-10-16T04:46:52;95589.31;;;9.45;67.67
62697;BME280;48761;42.680;23.312;2022-10-16T04:49:18;95586.81;;;9.41;67.87
62697;BME280;48761;42.680;23.312;2022-10-16T04:51:44;95594.53;;;9.46;67.90
62697;BME280;48761;42.680;23.312;2022-10-16T04:54:10;95602.50;;;9.46;67.74
62697;BME280;48761;42.680;23.312;2022-10-16T04:56:36;95606.38;;;9.57;67.47
62697;BME280;48761;42.680;23.312;2022-10-16T04:59:02;95600.81;;;9.61;68.17
62697;BME280;48761;42.680;23.312;2022-10-16T05:01:28;95601.63;;;9.96;66.99
62697;BME280;48761;42.680;23.312;2022-10-16T05:03:53;95606.75;;;10.15;66.53
62697;BME280;48761;42.680;23.312;2022-10-16T05:06:19;95607.94;;;10.09;66.72
62697;BME280;48761;42.680;23.312;2022-10-16T05:08:45;95624.72;;;10.42;65.71
62697;BME280;48761;42.680;23.312;2022-10-16T05:11:11;95616.50;;;10.63;64.80
62697;BME280;48761;42.680;23.312;2022-10-16T05:13:37;95610.63;;;10.73;64.85
62697;BME280;48761;42.680;23.312;2022-10-16T05:16:03;95628.03;;;11.09;63.51
62697;BME280;48761;42.680;23.312;2022-10-16T05:18:29;95614.56;;;11.27;62.79
62697;BME280;48761;42.680;23.312;2022-10-16T05:20:55;95626.53;;;11.35;62.93
62697;BME280;48761;42.680;23.312;2022-10-16T05:23:21;95629.78;;;11.40;62.85
62697;BME280;48761;42.680;23.312;2022-10-16T05:25:57;95625.97;;;11.73;60.83
62697;BME280;48761;42.680;23.312;2022-10-16T05:28:24;95629.56;;;11.87;60.39
62697;BME280;48761;42.680;23.312;2022-10-16T05:30:50;95630.13;;;11.92;60.69
62697;BME280;48761;42.680;23.312;2022-10-16T05:33:16;95623.63;;;12.11;59.71
62697;BME280;48761;42.680;23.312;2022-10-16T05:35:42;95625.41;;;12.40;60.13
62697;BME280;48761;42.680;23.312;2022-10-16T05:38:08;95642.41;;;12.52;59.71
62697;BME280;48761;42.680;23.312;2022-10-16T05:40:34;95629.84;;;12.95;58.56
62697;BME280;48761;42.680;23.312;2022-10-16T05:43:00;95630.97;;;12.77;58.73
62697;BME280;48761;42.680;23.312;2022-10-16T05:45:26;95620.91;;;12.68;59.51
62697;BME280;48761;42.680;23.312;2022-10-16T05:47:52;95641.59;;;12.64;59.17
62697;BME280;48761;42.680;23.312;2022-10-16T05:50:18;95637.00;;;12.53;59.85
62697;BME280;48761;42.680;23.312;2022-10-16T05:52:44;95642.00;;;12.58;59.72
62697;BME280;48761;42.680;23.312;2022-10-16T05:55:10;95616.47;;;12.82;59.22
62697;BME280;48761;42.680;23.312;2022-10-16T05:57:36;95641.94;;;13.14;58.47
62697;BME280;48761;42.680;23.312;2022-10-16T06:00:03;95648.47;;;13.09;58.25
62697;BME280;48761;42.680;23.312;2022-10-16T06:02:29;95654.66;;;12.82;58.97
62697;BME280;48761;42.680;23.312;2022-10-16T06:04:55;95664.91;;;12.75;59.34
62697;BME280;48761;42.680;23.312;2022-10-16T06:07:21;95664.78;;;13.18;58.83
62697;BME280;48761;42.680;23.312;2022-10-16T06:09:53;95633.00;;;13.41;57.56
62697;BME280;48761;42.680;23.312;2022-10-16T06:12:20;95671.03;;;14.10;56.41
62697;BME280;48761;42.680;23.312;2022-10-16T06:14:50;95666.13;;;13.90;55.94
62697;BME280;48761;42.680;23.312;2022-10-16T06:17:16;95667.38;;;14.11;55.77
62697;BME280;48761;42.680;23.312;2022-10-16T06:19:42;95673.94;;;14.44;54.87
62697;BME280;48761;42.680;23.312;2022-10-16T06:22:08;95675.50;;;14.22;54.87
62697;BME280;48761;42.680;23.312;2022-10-16T06:24:34;95674.09;;;14.30;54.74
62697;BME280;48761;42.680;23.312;2022-10-16T06:27:00;95673.66;;;14.74;53.50
62697;BME280;48761;42.680;23.312;2022-10-16T06:29:26;95676.31;;;14.36;54.00
62697;BME280;48761;42.680;23.312;2022-10-16T06:31:52;95684.97;;;14.40;54.21
62697;BME280;48761;42.680;23.312;2022-10-16T06:34:18;95655.56;;;13.63;55.70
62697;BME280;48761;42.680;23.312;2022-10-16T06:36:43;95673.84;;;13.69;56.07
62697;BME280;48761;42.680;23.312;2022-10-16T06:39:09;95653.50;;;13.40;56.20
62697;BME280;48761;42.680;23.312;2022-10-16T06:41:35;95695.16;;;13.43;56.96
62697;BME280;48761;42.680;23.312;2022-10-16T06:44:05;95683.03;;;13.91;56.03
62697;BME280;48761;42.680;23.312;2022-10-16T06:46:31;95700.78;;;14.05;55.24
62697;BME280;48761;42.680;23.312;2022-10-16T06:48:57;95700.09;;;14.28;54.71
62697;BME280;48761;42.680;23.312;2022-10-16T06:51:24;95699.44;;;14.24;54.59
62697;BME280;48761;42.680;23.312;2022-10-16T06:53:53;95707.41;;;13.99;55.38
62697;BME280;48761;42.680;23.312;2022-10-16T06:56:21;95696.25;;;14.06;55.09
62697;BME280;48761;42.680;23.312;2022-10-16T06:58:48;95716.19;;;14.90;53.52
62697;BME280;48761;42.680;23.312;2022-10-16T07:01:16;95717.16;;;15.13;52.53
62697;BME280;48761;42.680;23.312;2022-10-16T07:03:44;95714.22;;;14.30;54.64
62697;BME280;48761;42.680;23.312;2022-10-16T07:06:14;95682.22;;;14.66;53.62
62697;BME280;48761;42.680;23.312;2022-10-16T07:08:42;95713.91;;;14.08;54.72
62697;BME280;48761;42.680;23.312;2022-10-16T07:11:13;95704.94;;;14.60;53.59
62697;BME280;48761;42.680;23.312;2022-10-16T07:13:41;95713.75;;;14.36;54.22
62697;BME280;48761;42.680;23.312;2022-10-16T07:16:08;95722.94;;;14.58;53.81
62697;BME280;48761;42.680;23.312;2022-10-16T07:18:35;95723.66;;;13.96;55.49
62697;BME280;48761;42.680;23.312;2022-10-16T07:21:18;95716.50;;;13.97;55.45
62697;BME280;48761;42.680;23.312;2022-10-16T07:23:44;95720.16;;;13.83;55.46
62697;BME280;48761;42.680;23.312;2022-10-16T07:26:11;95722.56;;;13.86;56.07
62697;BME280;48761;42.680;23.312;2022-10-16T07:28:38;95722.19;;;14.56;54.61
62697;BME280;48761;42.680;23.312;2022-10-16T07:31:06;95729.06;;;14.72;53.84
62697;BME280;48761;42.680;23.312;2022-10-16T07:33:34;95699.66;;;14.34;54.15
62697;BME280;48761;42.680;23.312;2022-10-16T07:36:00;95720.91;;;14.49;54.28
62697;BME280;48761;42.680;23.312;2022-10-16T07:38:26;95700.03;;;15.16;52.58
62697;BME280;48761;42.680;23.312;2022-10-16T07:41:04;95722.81;;;14.84;53.12
62697;BME280;48761;42.680;23.312;2022-10-16T07:43:31;95727.00;;;14.51;53.89
62697;BME280;48761;42.680;23.312;2022-10-16T07:45:57;95726.22;;;14.62;54.04
62697;BME280;48761;42.680;23.312;2022-10-16T07:48:27;95699.09;;;14.42;53.89
62697;BME280;48761;42.680;23.312;2022-10-16T07:51:00;95697.59;;;14.88;53.04
62697;BME280;48761;42.680;23.312;2022-10-16T07:53:26;95735.38;;;14.84;53.20
62697;BME280;48761;42.680;23.312;2022-10-16T07:55:57;95686.59;;;14.67;53.50
62697;BME280;48761;42.680;23.312;2022-10-16T07:58:23;95721.34;;;14.80;53.26
62697;BME280;48761;42.680;23.312;2022-10-16T08:00:49;95735.69;;;15.17;52.95
62697;BME280;48761;42.680;23.312;2022-10-16T08:03:15;95732.91;;;14.94;53.08
62697;BME280;48761;42.680;23.312;2022-10-16T08:05:41;95726.47;;;14.83;53.23
62697;BME280;48761;42.680;23.312;2022-10-16T08:08:12;95735.75;;;15.64;52.26
62697;BME280;48761;42.680;23.312;2022-10-16T08:10:38;95720.19;;;16.04;50.66
62697;BME280;48761;42.680;23.312;2022-10-16T08:13:04;95732.78;;;15.56;51.04
62697;BME280;48761;42.680;23.312;2022-10-16T08:15:30;95739.72;;;15.47;51.74
62697;BME280;48761;42.680;23.312;2022-10-16T08:18:05;95699.16;;;15.16;52.05
62697;BME280;48761;42.680;23.312;2022-10-16T08:20:32;95698.53;;;15.48;51.49
62697;BME280;48761;42.680;23.312;2022-10-16T08:22:59;95713.28;;;15.54;51.39
62697;BME280;48761;42.680;23.312;2022-10-16T08:25:26;95723.81;;;15.32;51.92
62697;BME280;48761;42.680;23.312;2022-10-16T08:27:52;95720.78;;;15.85;51.19
62697;BME280;48761;42.680;23.312;2022-10-16T08:30:19;95707.06;;;15.53;50.84
62697;BME280;48761;42.680;23.312;2022-10-16T08:32:46;95711.91;;;15.37;51.27
62697;BME280;48761;42.680;23.312;2022-10-16T08:35:13;95710.03;;;15.62;51.02
62697;BME280;48761;42.680;23.312;2022-10-16T08:37:39;95707.88;;;16.01;50.82
62697;BME280;48761;42.680;23.312;2022-10-16T08:40:06;95724.81;;;15.79;50.28
62697;BME280;48761;42.680;23.312;2022-10-16T08:50:39;95727.44;;;16.15;49.72
62697;BME280;48761;42.680;23.312;2022-10-16T08:53:07;95724.63;;;16.17;48.75
62697;BME280;48761;42.680;23.312;2022-10-16T08:55:43;95704.03;;;16.17;48.80
62697;BME280;48761;42.680;23.312;2022-10-16T08:58:19;95732.25;;;16.90;48.21
62697;BME280;48761;42.680;23.312;2022-10-16T09:00:48;95705.09;;;16.61;46.31
62697;BME280;48761;42.680;23.312;2022-10-16T09:06:29;95730.72;;;16.07;46.05
62697;BME280;48761;42.680;23.312;2022-10-16T09:23:22;95711.34;;;16.15;44.23
62697;BME280;48761;42.680;23.312;2022-10-16T09:25:51;95737.66;;;16.44;42.98
62697;BME280;48761;42.680;23.312;2022-10-16T09:28:18;95723.00;;;16.72;42.89
62697;BME280;48761;42.680;23.312;2022-10-16T09:30:45;95729.13;;;16.62;44.04
62697;BME280;48761;42.680;23.312;2022-10-16T09:33:12;95704.50;;;16.11;44.75
62697;BME280;48761;42.680;23.312;2022-10-16T09:35:40;95722.69;;;16.98;43.56
62697;BME280;48761;42.680;23.312;2022-10-16T09:38:08;95729.03;;;17.08;43.57
62697;BME280;48761;42.680;23.312;2022-10-16T09:40:38;95728.31;;;16.95;42.62
62697;BME280;48761;42.680;23.312;2022-10-16T09:43:23;95722.03;;;16.61;43.17
62697;BME280;48761;42.680;23.312;2022-10-16T09:45:55;95721.34;;;16.24;44.28
62697;BME280;48761;42.680;23.312;2022-10-16T09:48:22;95718.28;;;16.97;43.58
62697;BME280;48761;42.680;23.312;2022-10-16T09:51:02;95710.19;;;17.20;42.19
62697;BME280;48761;42.680;23.312;2022-10-16T09:53:42;95709.13;;;17.44;42.35
62697;BME280;48761;42.680;23.312;2022-10-16T09:56:20;95686.00;;;17.31;41.95
62697;BME280;48761;42.680;23.312;2022-10-16T09:58:54;95671.13;;;17.48;42.02
62697;BME280;48761;42.680;23.312;2022-10-16T10:01:22;95697.31;;;17.78;42.46
62697;BME280;48761;42.680;23.312;2022-10-16T10:03:50;95693.81;;;18.09;41.03
62697;BME280;48761;42.680;23.312;2022-10-16T10:06:36;95696.41;;;17.46;42.21
62697;BME280;48761;42.680;23.312;2022-10-16T10:11:57;95704.59;;;17.44;41.76
62697;BME280;48761;42.680;23.312;2022-10-16T10:15:06;95694.78;;;17.76;42.07
62697;BME280;48761;42.680;23.312;2022-10-16T10:17:19;95687.50;;;17.67;38.62
62697;BME280;48761;42.680;23.312;2022-10-16T10:30:33;95643.94;;;17.42;39.59
62697;BME280;48761;42.680;23.312;2022-10-16T10:40:45;95643.00;;;17.31;39.83
62697;BME280;48761;42.680;23.312;2022-10-16T10:46:02;95665.75;;;18.01;40.78
62697;BME280;48761;42.680;23.312;2022-10-16T10:51:05;95666.97;;;17.66;41.37
62697;BME280;48761;42.680;23.312;2022-10-16T10:53:56;95656.88;;;17.79;41.62
62697;BME280;48761;42.680;23.312;2022-10-16T10:56:48;95663.78;;;18.03;41.51
62697;BME280;48761;42.680;23.312;2022-10-16T11:02:37;95657.78;;;17.25;41.69
62697;BME280;48761;42.680;23.312;2022-10-16T11:08:02;95653.69;;;17.96;40.69
62697;BME280;48761;42.680;23.312;2022-10-16T11:10:42;95647.44;;;17.09;38.26
62697;BME280;48761;42.680;23.312;2022-10-16T11:13:19;95645.72;;;17.20;38.13
62697;BME280;48761;42.680;23.312;2022-10-16T11:15:48;95651.69;;;17.45;37.90
62697;BME280;48761;42.680;23.312;2022-10-16T11:18:27;95620.25;;;17.35;38.21
62697;BME280;48761;42.680;23.312;2022-10-16T11:21:04;95625.81;;;17.44;38.39
62697;BME280;48761;42.680;23.312;2022-10-16T11:23:49;95633.50;;;17.48;39.35
62697;BME280;48761;42.680;23.312;2022-10-16T11:26:24;95623.03;;;17.12;39.73
62697;BME280;48761;42.680;23.312;2022-10-16T11:28:53;95641.22;;;17.20;40.38
62697;BME280;48761;42.680;23.312;2022-10-16T11:31:34;95622.28;;;17.22;39.38
62697;BME280;48761;42.680;23.312;2022-10-16T11:37:18;95624.28;;;17.73;40.39
62697;BME280;48761;42.680;23.312;2022-10-16T11:39:46;95630.00;;;17.79;40.09
62697;BME280;48761;42.680;23.312;2022-10-16T11:47:39;95633.88;;;17.22;40.52
62697;BME280;48761;42.680;23.312;2022-10-16T11:55:39;95598.72;;;17.14;39.71
62697;BME280;48761;42.680;23.312;2022-10-16T12:03:45;95638.97;;;17.47;39.73
62697;BME280;48761;42.680;23.312;2022-10-16T12:06:36;95634.41;;;17.38;40.21
62697;BME280;48761;42.680;23.312;2022-10-16T12:09:04;95614.59;;;17.60;40.59
62697;BME280;48761;42.680;23.312;2022-10-16T12:11:36;95628.78;;;17.72;41.15
62697;BME280;48761;42.680;23.312;2022-10-16T12:14:18;95630.03;;;17.89;40.97
62697;BME280;48761;42.680;23.312;2022-10-16T12:19:19;95628.56;;;17.32;41.10
62697;BME280;48761;42.680;23.312;2022-10-16T12:21:46;95602.25;;;17.26;41.39
62697;BME280;48761;42.680;23.312;2022-10-16T12:24:36;95632.31;;;17.41;41.14
62697;BME280;48761;42.680;23.312;2022-10-16T12:27:06;95607.94;;;17.33;40.89
62697;BME280;48761;42.680;23.312;2022-10-16T12:29:46;95626.34;;;17.38;40.83
62697;BME280;48761;42.680;23.312;2022-10-16T12:32:31;95623.31;;;17.52;40.49
62697;BME280;48761;42.680;23.312;2022-10-16T12:34:59;95610.00;;;17.29;41.03
62697;BME280;48761;42.680;23.312;2022-10-16T12:37:34;95633.38;;;17.29;41.26
62697;BME280;48761;42.680;23.312;2022-10-16T12:40:26;95615.78;;;16.91;41.41
62697;BME280;48761;42.680;23.312;2022-10-16T12:42:53;95635.41;;;17.03;41.68
62697;BME280;48761;42.680;23.312;2022-10-16T12:45:34;95625.50;;;17.04;42.18
62697;BME280;48761;42.680;23.312;2022-10-16T12:48:01;95628.91;;;17.18;41.84
62697;BME280;48761;42.680;23.312;2022-10-16T12:50:33;95581.56;;;17.05;41.91
62697;BME280;48761;42.680;23.312;2022-10-16T12:53:00;95640.31;;;17.31;40.77
62697;BME280;48761;42.680;23.312;2022-10-16T12:55:34;95635.13;;;17.40;40.43
62697;BME280;48761;42.680;23.312;2022-10-16T13:06:56;95641.69;;;17.25;41.98
62697;BME280;48761;42.680;23.312;2022-10-16T13:12:55;95624.91;;;17.33;41.86
62697;BME280;48761;42.680;23.312;2022-10-16T13:27:38;95629.13;;;17.14;39.94
62697;BME280;48761;42.680;23.312;2022-10-16T13:30:23;95646.44;;;17.22;40.25
62697;BME280;48761;42.680;23.312;2022-10-16T13:32:57;95641.69;;;17.14;39.98
62697;BME280;48761;42.680;23.312;2022-10-16T13:35:26;95645.22;;;17.26;40.25
62697;BME280;48761;42.680;23.312;2022-10-16T13:38:22;95638.13;;;17.25;40.25
62697;BME280;48761;42.680;23.312;2022-10-16T13:40:59;95649.59;;;17.27;40.44
62697;BME280;48761;42.680;23.312;2022-10-16T13:43:38;95643.25;;;17.28;39.92
62697;BME280;48761;42.680;23.312;2022-10-16T13:46:17;95643.72;;;17.33;40.43
62697;BME280;48761;42.680;23.312;2022-10-16T13:48:44;95649.81;;;17.35;40.33
62697;BME280;48761;42.680;23.312;2022-10-16T13:51:18;95652.75;;;17.32;39.88
62697;BME280;48761;42.680;23.312;2022-10-16T13:53:51;95627.94;;;17.19;40.20
62697;BME280;48761;42.680;23.312;2022-10-16T13:56:19;95647.13;;;17.35;39.87
62697;BME280;48761;42.680;23.312;2022-10-16T13:58:46;95638.13;;;17.25;38.76
62697;BME280;48761;42.680;23.312;2022-10-16T14:01:42;95649.75;;;17.25;38.68
62697;BME280;48761;42.680;23.312;2022-10-16T14:04:11;95654.72;;;17.30;39.08
62697;BME280;48761;42.680;23.312;2022-10-16T14:06:44;95646.91;;;17.27;38.40
62697;BME280;48761;42.680;23.312;2022-10-16T14:11:50;95650.31;;;17.29;38.43
62697;BME280;48761;42.680;23.312;2022-10-16T14:14:18;95659.13;;;17.31;38.29
62697;BME280;48761;42.680;23.312;2022-10-16T14:16:44;95656.28;;;17.33;38.00
62697;BME280;48761;42.680;23.312;2022-10-16T14:19:30;95661.34;;;17.26;38.12
62697;BME280;48761;42.680;23.312;2022-10-16T14:21:56;95658.66;;;17.14;37.73
62697;BME280;48761;42.680;23.312;2022-10-16T14:24:34;95664.03;;;17.14;37.82
62697;BME280;48761;42.680;23.312;2022-10-16T14:27:02;95667.09;;;17.10;37.79
62697;BME280;48761;42.680;23.312;2022-10-16T14:29:29;95631.00;;;16.81;37.57
62697;BME280;48761;42.680;23.312;2022-10-16T14:32:00;95666.09;;;16.89;37.62
62697;BME280;48761;42.680;23.312;2022-10-16T14:34:37;95672.69;;;16.85;37.82
62697;BME280;48761;42.680;23.312;2022-10-16T14:37:26;95680.41;;;16.78;38.14
62697;BME280;48761;42.680;23.312;2022-10-16T14:39:55;95671.50;;;16.66;38.35
62697;BME280;48761;42.680;23.312;2022-10-16T14:42:23;95682.88;;;16.70;38.44
62697;BME280;48761;42.680;23.312;2022-10-16T14:44:53;95684.59;;;16.60;38.52
62697;BME280;48761;42.680;23.312;2022-10-16T14:47:23;95664.75;;;16.39;38.53
62697;BME280;48761;42.680;23.312;2022-10-16T14:49:53;95685.94;;;16.54;38.59
62697;BME280;48761;42.680;23.312;2022-10-16T14:52:19;95686.22;;;16.51;38.78
62697;BME280;48761;42.680;23.312;2022-10-16T14:54:48;95686.44;;;16.36;38.40
62697;BME280;48761;42.680;23.312;2022-10-16T14:57:19;95691.31;;;16.31;38.79
62697;BME280;48761;42.680;23.312;2022-10-16T14:59:47;95665.28;;;16.10;39.48
62697;BME280;48761;42.680;23.312;2022-10-16T15:02:16;95696.47;;;16.22;39.73